Time,TemperatureF,DewpointF,PressureIn,WindDirection,WindDirectionDegrees,WindSpeedMPH,WindSpeedGustMPH,Humidity,HourlyPrecipIn,Conditions,Clouds,dailyrainin,SoftwareType,DateUTC
2013-03-12 00:07:00,46.0,44.9,30.18,ESE,112,0.0,-999.0,96,-99.99,,,0.00,Acu-Link.com,2013-03-12 07:07:00,
2013-03-12 00:22:00,46.0,45.5,30.18,ESE,112,0.0,-999.0,98,-99.99,,,0.00,Acu-Link.com,2013-03-12 07:22:00,
2013-03-12 00:37:00,46.2,45.7,30.19,ESE,112,0.0,-999.0,98,-99.99,,,0.00,Acu-Link.com,2013-03-12 07:37:00,
2013-03-12 00:52:00,46.8,46.3,30.17,NE,45,0.0,-999.0,98,-99.99,,,0.00,Acu-Link.com,2013-03-12 07:52:00,
2013-03-12 01:08:00,47.5,47.0,30.16,SSE,157,0.0,-999.0,98,-99.99,,,0.00,Acu-Link.com,2013-03-12 08:08:00,
2013-03-12 01:23:00,47.5,47.0,30.16,North,0,1.7,-999.0,98,-99.99,,,0.00,Acu-Link.com,2013-03-12 08:23:00,
2013-03-12 01:38:00,47.8,47.3,30.16,ENE,67,1.7,-999.0,98,-99.99,,,0.00,Acu-Link.com,2013-03-12 08:38:00,
2013-03-12 01:53:00,48.0,47.5,30.16,NNE,22,1.7,-999.0,98,-99.99,,,0.00,Acu-Link.com,2013-03-12 08:53:00,
2013-03-12 02:09:00,48.0,47.5,30.17,NNE,22,0.0,-999.0,98,-99.99,,,0.00,Acu-Link.com,2013-03-12 09:09:00,
2013-03-12 02:24:00,48.0,47.5,30.16,ESE,112,1.7,-999.0,98,-99.99,,,0.00,Acu-Link.com,2013-03-12 09:24:00,
2013-03-12 02:39:00,48.2,47.7,30.18,NNE,22,0.0,-999.0,98,-99.99,,,0.00,Acu-Link.com,2013-03-12 09:39:00,
2013-03-12 02:54:00,48.2,47.7,30.16,East,90,1.7,-999.0,98,-99.99,,,0.00,Acu-Link.com,2013-03-12 09:54:00,
2013-03-12 03:10:00,48.2,47.7,30.15,NNE,22,0.0,-999.0,98,-99.99,,,0.00,Acu-Link.com,2013-03-12 10:10:00,
2013-03-12 03:25:00,48.2,47.7,30.16,ESE,112,0.0,-999.0,98,-99.99,,,0.00,Acu-Link.com,2013-03-12 10:25:00,
2013-03-12 03:40:00,48.0,47.5,30.16,ESE,112,0.0,-999.0,98,-99.99,,,0.00,Acu-Link.com,2013-03-12 10:40:00,
2013-03-12 03:55:00,47.8,47.3,30.15,East,90,0.0,-999.0,98,-99.99,,,0.00,Acu-Link.com,2013-03-12 10:55:00,
2013-03-12 04:10:00,47.7,47.2,30.15,ESE,112,2.2,-999.0,98,-99.99,,,0.00,Acu-Link.com,2013-03-12 11:10:00,
2013-03-12 04:41:00,47.7,47.2,30.13,ESE,112,0.0,-999.0,98,-99.99,,,0.00,Acu-Link.com,2013-03-12 11:41:00,
2013-03-12 05:12:00,47.7,47.2,30.14,ENE,67,0.0,-999.0,98,-99.99,,,0.00,Acu-Link.com,2013-03-12 12:12:00,
2013-03-12 05:27:00,47.7,47.2,30.15,West,270,2.7,-999.0,98,-99.99,,,0.00,Acu-Link.com,2013-03-12 12:27:00,
2013-03-12 05:42:00,47.7,47.2,30.16,West,270,2.2,-999.0,98,-99.99,,,0.00,Acu-Link.com,2013-03-12 12:42:00,
2013-03-12 05:58:00,47.7,47.2,30.16,ESE,112,0.0,-999.0,98,-99.99,,,0.00,Acu-Link.com,2013-03-12 12:58:00,
2013-03-12 06:13:00,47.7,47.2,30.16,SE,135,0.0,-999.0,98,-99.99,,,0.00,Acu-Link.com,2013-03-12 13:13:00,
2013-03-12 06:28:00,47.7,47.2,30.15,SE,135,0.0,-999.0,98,-99.99,,,0.00,Acu-Link.com,2013-03-12 13:28:00,
2013-03-12 06:43:00,47.7,47.2,30.15,ESE,112,0.0,-999.0,98,-99.99,,,0.00,Acu-Link.com,2013-03-12 13:43:00,
2013-03-12 06:58:00,47.7,47.2,30.16,SE,135,0.0,-999.0,98,-99.99,,,0.00,Acu-Link.com,2013-03-12 13:58:00,
2013-03-12 07:14:00,47.8,47.3,30.15,ENE,67,0.0,-999.0,98,-99.99,,,0.00,Acu-Link.com,2013-03-12 14:14:00,
2013-03-12 07:29:00,47.8,47.3,30.15,SW,225,0.0,-999.0,98,-99.99,,,0.00,Acu-Link.com,2013-03-12 14:29:00,
2013-03-12 07:44:00,47.8,47.3,30.15,SSE,157,0.0,-999.0,98,-99.99,,,0.00,Acu-Link.com,2013-03-12 14:44:00,
2013-03-12 08:00:00,48.0,47.5,30.17,NE,45,0.0,-999.0,98,-99.99,,,0.00,Acu-Link.com,2013-03-12 15:00:00,
2013-03-12 08:15:00,48.2,47.7,30.17,SE,135,0.0,-999.0,98,-99.99,,,0.00,Acu-Link.com,2013-03-12 15:15:00,
2013-03-12 08:30:00,48.6,48.1,30.17,SSW,202,0.0,-999.0,98,-99.99,,,0.00,Acu-Link.com,2013-03-12 15:30:00,
2013-03-12 08:46:00,48.9,48.4,30.18,WSW,247,0.0,-999.0,98,-99.99,,,0.00,Acu-Link.com,2013-03-12 15:46:00,
2013-03-12 09:16:00,49.8,49.3,30.19,WNW,292,1.1,-999.0,98,-99.99,,,0.00,Acu-Link.com,2013-03-12 16:16:00,
2013-03-12 09:31:00,50.5,49.4,30.18,WSW,247,0.0,-999.0,96,-99.99,,,0.00,Acu-Link.com,2013-03-12 16:31:00,
2013-03-12 09:47:00,51.3,49.9,30.20,SW,225,2.2,-999.0,95,-99.99,,,0.00,Acu-Link.com,2013-03-12 16:47:00,
2013-03-12 10:02:00,51.8,49.8,30.20,WSW,247,2.7,-999.0,93,-99.99,,,0.00,Acu-Link.com,2013-03-12 17:02:00,
2013-03-12 10:17:00,52.9,50.3,30.19,West,270,2.7,-999.0,91,-99.99,,,0.00,Acu-Link.com,2013-03-12 17:17:00,
2013-03-12 10:48:00,52.7,49.8,30.18,West,270,1.7,-999.0,90,-99.99,,,0.00,Acu-Link.com,2013-03-12 17:48:00,
2013-03-12 11:03:00,53.6,50.4,30.18,West,270,1.1,-999.0,89,-99.99,,,0.00,Acu-Link.com,2013-03-12 18:03:00,
2013-03-12 11:18:00,54.1,50.0,30.19,West,270,0.0,-999.0,86,-99.99,,,0.00,Acu-Link.com,2013-03-12 18:18:00,
2013-03-12 11:34:00,55.0,50.3,30.20,SSW,202,0.0,-999.0,84,-99.99,,,0.00,Acu-Link.com,2013-03-12 18:34:00,
2013-03-12 11:49:00,56.1,50.7,30.19,South,180,0.0,-999.0,82,-99.99,,,0.00,Acu-Link.com,2013-03-12 18:49:00,
2013-03-12 12:04:00,56.3,50.9,30.19,ESE,112,0.0,-999.0,82,-99.99,,,0.00,Acu-Link.com,2013-03-12 19:04:00,
2013-03-12 12:19:00,55.4,50.3,30.19,East,90,1.7,-999.0,83,-99.99,,,0.00,Acu-Link.com,2013-03-12 19:19:00,
2013-03-12 12:35:00,55.4,50.0,30.19,WNW,292,3.7,-999.0,82,-99.99,,,0.00,Acu-Link.com,2013-03-12 19:35:00,
2013-03-12 12:50:00,56.1,50.3,30.18,SW,225,0.0,-999.0,81,-99.99,,,0.00,Acu-Link.com,2013-03-12 19:50:00,
2013-03-12 13:05:00,56.8,50.0,30.19,ESE,112,2.2,-999.0,78,-99.99,,,0.00,Acu-Link.com,2013-03-12 20:05:00,
2013-03-12 13:21:00,56.7,49.6,30.17,WSW,247,3.2,-999.0,77,-99.99,,,0.00,Acu-Link.com,2013-03-12 20:21:00,
2013-03-12 13:36:00,57.6,50.1,30.16,SW,225,2.2,-999.0,76,-99.99,,,0.00,Acu-Link.com,2013-03-12 20:36:00,
2013-03-12 14:06:00,58.1,50.6,30.16,West,270,2.2,-999.0,76,-99.99,,,0.00,Acu-Link.com,2013-03-12 21:06:00,
2013-03-12 14:22:00,57.7,50.2,30.15,SSW,202,1.1,-999.0,76,-99.99,,,0.00,Acu-Link.com,2013-03-12 21:22:00,
2013-03-12 14:52:00,58.6,50.0,30.16,SW,225,2.7,-999.0,73,-99.99,,,0.00,Acu-Link.com,2013-03-12 21:52:00,
2013-03-12 15:22:00,61.2,52.8,30.15,WNW,292,6.3,-999.0,74,-99.99,,,0.00,Acu-Link.com,2013-03-12 22:22:00,
2013-03-12 15:38:00,61.2,52.1,30.13,SW,225,5.3,-999.0,72,-99.99,,,0.00,Acu-Link.com,2013-03-12 22:38:00,
2013-03-12 16:08:00,58.5,51.3,30.15,West,270,4.2,-999.0,77,-99.99,,,0.00,Acu-Link.com,2013-03-12 23:08:00,
2013-03-12 16:23:00,59.4,51.8,30.14,WSW,247,4.2,-999.0,76,-99.99,,,0.00,Acu-Link.com,2013-03-12 23:23:00,
2013-03-12 16:39:00,59.7,51.0,30.13,NW,315,2.2,-999.0,73,-99.99,,,0.00,Acu-Link.com,2013-03-12 23:39:00,
2013-03-12 16:54:00,59.2,50.2,30.13,SW,225,3.7,-999.0,72,-99.99,,,0.00,Acu-Link.com,2013-03-12 23:54:00,
2013-03-12 17:09:00,58.1,50.2,30.13,WNW,292,6.3,-999.0,75,-99.99,,,0.00,Acu-Link.com,2013-03-13 00:09:00,
2013-03-12 17:25:00,57.2,50.1,30.14,WNW,292,3.2,-999.0,77,-99.99,,,0.00,Acu-Link.com,2013-03-13 00:25:00,
2013-03-12 17:40:00,55.8,50.1,30.14,West,270,2.7,-999.0,81,-99.99,,,0.00,Acu-Link.com,2013-03-13 00:40:00,
2013-03-12 17:55:00,55.0,49.9,30.14,WNW,292,2.7,-999.0,83,-99.99,,,0.00,Acu-Link.com,2013-03-13 00:55:00,
2013-03-12 18:10:00,54.3,49.2,30.14,NNE,22,1.7,-999.0,83,-99.99,,,0.00,Acu-Link.com,2013-03-13 01:10:00,
2013-03-12 18:25:00,53.8,49.4,30.17,WNW,292,3.7,-999.0,85,-99.99,,,0.00,Acu-Link.com,2013-03-13 01:25:00,
2013-03-12 18:40:00,52.5,48.4,30.17,SW,225,5.3,-999.0,86,-99.99,,,0.00,Acu-Link.com,2013-03-13 01:40:00,
2013-03-12 19:11:00,51.8,48.1,30.16,ENE,67,1.7,-999.0,87,-99.99,,,0.00,Acu-Link.com,2013-03-13 02:11:00,
2013-03-12 19:26:00,51.1,47.7,30.17,NNW,337,2.7,-999.0,88,-99.99,,,0.00,Acu-Link.com,2013-03-13 02:26:00,
2013-03-12 19:41:00,50.7,47.6,30.15,North,0,0.0,-999.0,89,-99.99,,,0.00,Acu-Link.com,2013-03-13 02:41:00,
2013-03-12 19:57:00,50.5,47.4,30.16,WSW,247,0.0,-999.0,89,-99.99,,,0.00,Acu-Link.com,2013-03-13 02:57:00,
2013-03-12 20:12:00,50.2,47.7,30.16,SW,225,4.2,-999.0,91,-99.99,,,0.00,Acu-Link.com,2013-03-13 03:12:00,
2013-03-12 20:27:00,49.8,47.3,30.19,WSW,247,5.3,-999.0,91,-99.99,,,0.00,Acu-Link.com,2013-03-13 03:27:00,
2013-03-12 20:43:00,49.6,47.4,30.18,WNW,292,0.0,-999.0,92,-99.99,,,0.00,Acu-Link.com,2013-03-13 03:43:00,
2013-03-12 20:58:00,49.5,47.3,30.16,NNE,22,2.2,-999.0,92,-99.99,,,0.00,Acu-Link.com,2013-03-13 03:58:00,
2013-03-12 21:13:00,49.5,47.3,30.16,NW,315,0.0,-999.0,92,-99.99,,,0.00,Acu-Link.com,2013-03-13 04:13:00,
2013-03-12 21:28:00,49.3,47.1,30.15,SW,225,0.0,-999.0,92,-99.99,,,0.00,Acu-Link.com,2013-03-13 04:28:00,
2013-03-12 21:44:00,49.1,47.2,30.16,West,270,0.0,-999.0,93,-99.99,,,0.00,Acu-Link.com,2013-03-13 04:44:00,
2013-03-12 21:59:00,49.1,47.2,30.17,SSE,157,0.0,-999.0,93,-99.99,,,0.00,Acu-Link.com,2013-03-13 04:59:00,
2013-03-12 22:14:00,48.9,47.0,30.17,SW,225,0.0,-999.0,93,-99.99,,,0.00,Acu-Link.com,2013-03-13 05:14:00,
2013-03-12 22:29:00,48.9,47.2,30.17,ESE,112,0.0,-999.0,94,-99.99,,,0.00,Acu-Link.com,2013-03-13 05:29:00,
2013-03-12 22:44:00,48.7,47.1,30.16,SW,225,0.0,-999.0,94,-99.99,,,0.00,Acu-Link.com,2013-03-13 05:44:00,
2013-03-12 23:00:00,48.7,47.1,30.16,SW,225,0.0,-999.0,94,-99.99,,,0.00,Acu-Link.com,2013-03-13 06:00:00,
2013-03-12 23:15:00,48.7,47.1,30.16,WSW,247,0.0,-999.0,94,-99.99,,,0.00,Acu-Link.com,2013-03-13 06:15:00,
2013-03-12 23:30:00,48.7,47.1,30.17,SW,225,0.0,-999.0,94,-99.99,,,0.00,Acu-Link.com,2013-03-13 06:30:00,
2013-03-12 23:46:00,48.7,47.1,30.17,West,270,0.0,-999.0,94,-99.99,,,0.00,Acu-Link.com,2013-03-13 06:46:00,